Nearby METAR Reports

 

KALB - Albany, New York, USA
Distance from station: E 47mi, 75km
Updated: Mon, 30-Mar-2020 4:51am EDT
Partly cloudy
Partly cloudy
 Wind from SSE
Wind: SSE 5 mph , 7 km/h
Temperature: 41°F , 5°C
Wind Chill: 38°F , 3°C
Dew Point: 37°F , 3°C
Humidity: 87%
Barometer: 29.92 inHg , 1013.2 hPa
Clouds: Partly cloudy
Visibility: 10 miles , 16 km
Cloud details: Few Clouds 800 ft
Few Clouds 2200 ft
Partly cloudy 5000 ft
2020/03/30 08:51 KALB 300851Z 16004KT 10SM FEW008 FEW022 SCT050 05/03 A2992 RMK AO2 SLP134 60000 T00500028 56010
KSLK - Saranac Lake, New York, USA
Distance from station: N 110mi, 177km
Updated: Mon, 30-Mar-2020 4:51am EDT
Mostly cloudy
Mostly cloudy
 Wind from calm
Wind: Calm
Temperature: 32°F , 0°C
Dew Point: 30°F , -1°C
Humidity: 93%
Barometer: 29.79 inHg , 1008.8 hPa
Clouds: Mostly cloudy
Visibility: 10 miles , 16 km
Cloud details: Mostly cloudy 3600 ft
2020/03/30 08:51 KSLK 300851Z AUTO 00000KT 10SM BKN036 00/M01 A2979 RMK AO2 SLP099 T00001011 55004
 
KSYR - Syracuse, New York, USA
Distance from station: W 73mi, 117km
Updated: Mon, 30-Mar-2020 4:54am EDT
Light drizzle, Overcast
Light drizzle, Overcast
 Wind from calm
Wind: Calm
Temperature: 48°F , 9°C
Dew Point: 41°F , 5°C
Humidity: 76%
Barometer: 29.81 inHg , 1009.5 hPa
Summary: Light Drizzle
Clouds: Overcast
Visibility: 10 miles , 16 km
Cloud details: Mostly cloudy 4300 ft
Overcast 8000 ft
2020/03/30 08:54 KSYR 300854Z 00000KT 10SM -DZ BKN043 OVC080 09/05 A2981 RMK AO2 DZB50 SLP092 P0000 60000 T00890050 56015
KBGM - Binghamton, New York, USA
Distance from station: SW 78mi, 126km
Updated: Mon, 30-Mar-2020 5:16am EDT
Fog, Overcast
Fog, Overcast
 Wind from calm
Wind: Calm
Temperature: 43°F , 6°C
Dew Point: 43°F , 6°C
Humidity: 100%
Barometer: 29.84 inHg , 1010.5 hPa
Summary: Fog
Clouds: Overcast
Visibility: 1/4 mile , 0.4 km
Cloud details: Few Clouds 100 ft
Mostly cloudy 4800 ft
Overcast 6000 ft
2020/03/30 09:16 KBGM 300916Z AUTO 00000KT 1/4SM FG FEW001 BKN048 OVC060 06/06 A2984 RMK AO2 T00560056 RVRNO
 
KRME - Rome, New York, USA
Distance from station: WNW 43mi, 69km
Updated: Mon, 30-Mar-2020 4:53am EDT
Overcast
Overcast
 Wind from ESE
Wind: ESE 9 mph , 15 km/h
Temperature: 45°F , 7°C
Wind Chill: 40°F , 4°C
Dew Point: 43°F , 6°C
Humidity: 93%
Barometer: 29.84 inHg , 1010.5 hPa
Clouds: Overcast
Visibility: 10 miles , 16 km
Cloud details: Overcast 8000 ft
2020/03/30 08:53 KRME 300853Z AUTO 12008KT 10SM OVC080 07/06 A2984 RMK AO2 SLP106 T00670056 56011
KJFK - New York, New York, USA
Distance from station: SSE 159mi, 256km
Updated: Mon, 30-Mar-2020 4:51am EDT
Overcast
Overcast
 Wind from NE
Wind: NE 12 mph , 19 km/h
Temperature: 45°F , 7°C
Wind Chill: 39°F , 4°C
Dew Point: 43°F , 6°C
Humidity: 93%
Barometer: 29.96 inHg , 1014.6 hPa
Clouds: Overcast
Visibility: 10 miles , 16 km
Cloud details: Overcast 1200 ft
2020/03/30 08:51 KJFK 300851Z 05010KT 10SM OVC012 07/06 A2996 RMK AO2 SLP144 T00670061 51015
 
KROC - Rochester, New York, USA
Distance from station: W 150mi, 242km
Updated: Mon, 30-Mar-2020 4:54am EDT
Light rain, Overcast
Light rain, Overcast
 Wind from WSW
Wind: WSW 16 mph , 26 km/h, Gust: 25 mph , 41 km/h
Temperature: 50°F , 10°C
Wind Chill: 44°F , 7°C
Dew Point: 39°F , 4°C
Humidity: 67%
Barometer: 29.78 inHg , 1008.5 hPa
Summary: Light rain
Clouds: Overcast
Visibility: 10 miles , 16 km
Cloud details: Mostly cloudy 3800 ft
Overcast 5000 ft
2020/03/30 08:54 KROC 300854Z 25014G22KT 10SM -RA BKN038 OVC050 10/04 A2978 RMK AO2 RAB48 SLP086 P0000 60000 T01000039 55007 $
KART - Watertown, New York, USA
Distance from station: NNW 103mi, 166km
Updated: Mon, 30-Mar-2020 4:56am EDT
Overcast
Overcast
 Wind from SSW
Wind: SSW 7 mph , 11 km/h
Temperature: 48°F , 9°C
Wind Chill: 45°F , 7°C
Dew Point: 39°F , 4°C
Humidity: 71%
Barometer: 29.76 inHg , 1007.8 hPa
Clouds: Overcast
Visibility: 10 miles , 16 km
Cloud details: Overcast 5500 ft
2020/03/30 08:56 KART 300856Z AUTO 20006KT 10SM OVC055 09/04 A2976 RMK AO2 SLP078 T00940044 56010
 
KELM - Elmira-Corning, New York, USA
Distance from station: SSW 121mi, 195km
Updated: Mon, 30-Mar-2020 4:53am EDT
Overcast
Overcast
 Wind from calm
Wind: Calm
Temperature: 37°F , 3°C
Dew Point: 37°F , 3°C
Humidity: 100%
Barometer: 29.83 inHg , 1010.2 hPa
Clouds: Overcast
Visibility: 10 miles , 16 km
Cloud details: Mostly cloudy 7000 ft
Overcast 8500 ft
2020/03/30 08:53 KELM 300853Z AUTO 00000KT 10SM BKN070 OVC085 03/03 A2983 RMK AO2 SLP104 T00330028 55003
KJHW - Jamestown, New York, USA
Distance from station: SW 238mi, 383km
Updated: Mon, 30-Mar-2020 4:56am EDT
Light rain, Overcast
Light rain, Overcast
 Wind from WSW
Wind: WSW 13 mph , 20 km/h
Temperature: 43°F , 6°C
Wind Chill: 36°F , 2°C
Dew Point: 41°F , 5°C
Humidity: 93%
Barometer: 29.80 inHg , 1009.1 hPa
Summary: Light rain
Clouds: Overcast
Visibility: 10 miles , 16 km
Cloud details: Partly cloudy 1600 ft
Mostly cloudy 2100 ft
Overcast 6000 ft
2020/03/30 08:56 KJHW 300856Z AUTO 25011KT 10SM -RA SCT016 BKN021 OVC060 06/05 A2980 RMK AO2 SLP100 P0000 60002 T00610050 56008
 
KMSS - Massena, New York, USA
Distance from station: N 141mi, 232km
Updated: Mon, 30-Mar-2020 4:53am EDT
Overcast
Overcast
 Wind from S
Wind: S 5 mph , 7 km/h
Temperature: 45°F , 7°C
Wind Chill: 42°F , 6°C
Dew Point: 39°F , 4°C
Humidity: 81%
Barometer: 29.78 inHg , 1008.5 hPa
Clouds: Overcast
Visibility: 10 miles , 16 km
Cloud details: Overcast 4400 ft
2020/03/30 08:53 KMSS 300853Z AUTO 18004KT 10SM OVC044 07/04 A2978 RMK AO2 SLP087 T00720039 56006
KBUF - Buffalo, New York, USA
Distance from station: W 204mi, 328km
Updated: Mon, 30-Mar-2020 4:54am EDT
Overcast
Overcast
 Wind from SW
Wind: SW 23 mph , 37 km/h, Gust: 31 mph , 50 km/h
Temperature: 46°F , 8°C
Wind Chill: 38°F , 3°C
Dew Point: 39°F , 4°C
Humidity: 76%
Barometer: 29.76 inHg , 1007.8 hPa
Clouds: Overcast
Visibility: 10 miles , 16 km
Cloud details: Few Clouds 5500 ft
Mostly cloudy 9000 ft
Overcast 11000 ft
2020/03/30 08:54 KBUF 300854Z 22020G27KT 10SM FEW055 BKN090 OVC110 08/04 A2976 RMK AO2 PK WND 21031/0818 RAE01B20E40 SLP080 P0000 60000 T00780044 55006